createdAt,value
2023-02-16T00:02:01.625Z,30.93
2023-02-16T00:04:31.985Z,27.63
2023-02-16T00:07:00.179Z,28.53
2023-02-16T00:09:28.143Z,22.80
2023-02-16T00:12:13.396Z,26.30
2023-02-16T00:14:41.520Z,29.17
2023-02-16T00:17:12.880Z,24.67
2023-02-16T00:19:43.226Z,25.63
2023-02-16T00:22:11.678Z,31.63
2023-02-16T00:24:39.771Z,27.07
2023-02-16T00:27:14.090Z,24.47
2023-02-16T00:29:44.695Z,31.63
2023-02-16T00:32:15.875Z,29.17
2023-02-16T00:34:44.311Z,28.23
2023-02-16T00:37:13.769Z,31.10
2023-02-16T00:39:43.544Z,27.17
2023-02-16T00:42:15.541Z,26.93
2023-02-16T00:44:45.082Z,23.97
2023-02-16T00:47:19.961Z,27.53
2023-02-16T00:49:48.403Z,29.87
2023-02-16T00:52:29.349Z,28.67
2023-02-16T00:54:57.331Z,29.93
2023-02-16T00:57:25.882Z,28.60
2023-02-16T00:59:59.600Z,30.43
2023-02-16T01:02:29.306Z,30.13
2023-02-16T01:04:57.182Z,30.10
2023-02-16T01:07:42.294Z,34.07
2023-02-16T01:10:29.224Z,29.40
2023-02-16T01:12:57.317Z,26.03
2023-02-16T01:15:26.425Z,30.90
2023-02-16T01:17:55.760Z,30.40
2023-02-16T01:20:25.302Z,28.53
2023-02-16T01:22:53.380Z,29.60
2023-02-16T01:25:21.496Z,34.63
2023-02-16T01:27:50.442Z,28.10
2023-02-16T01:30:20.281Z,30.07
2023-02-16T01:32:51.742Z,34.20
2023-02-16T01:35:22.253Z,28.93
2023-02-16T01:37:50.386Z,30.17
2023-02-16T01:40:27.861Z,28.17
2023-02-16T01:42:58.704Z,35.70
2023-02-16T01:45:33.753Z,29.47
2023-02-16T01:48:04.820Z,28.87
2023-02-16T01:50:43.471Z,31.63
2023-02-16T01:53:20.456Z,33.47
2023-02-16T01:55:49.628Z,32.80
2023-02-16T01:58:22.215Z,29.50
2023-02-16T02:01:45.440Z,30.50
2023-02-16T02:04:40.667Z,32.70
2023-02-16T02:07:15.599Z,31.13
2023-02-16T02:09:48.261Z,29.30
2023-02-16T02:12:22.247Z,28.63
2023-02-16T02:14:50.238Z,30.03
2023-02-16T02:17:20.019Z,30.00
2023-02-16T02:19:56.477Z,32.67
2023-02-16T02:23:12.265Z,25.27
2023-02-16T02:26:06.132Z,32.47
2023-02-16T02:28:40.011Z,36.63
2023-02-16T02:31:09.589Z,34.17
2023-02-16T02:33:45.958Z,33.03
2023-02-16T02:36:24.740Z,27.97
2023-02-16T02:39:01.375Z,30.97
2023-02-16T02:41:48.236Z,31.80
2023-02-16T02:44:19.969Z,31.80
2023-02-16T02:46:48.352Z,26.20
2023-02-16T02:49:16.798Z,33.83
2023-02-16T02:51:44.724Z,28.10
2023-02-16T02:54:32.643Z,34.73
2023-02-16T02:57:37.976Z,30.43
2023-02-16T03:00:27.356Z,32.73
2023-02-16T03:02:57.835Z,32.27
2023-02-16T03:05:28.900Z,33.97
2023-02-16T03:08:06.481Z,28.47
2023-02-16T03:10:54.081Z,33.67
2023-02-16T03:13:26.291Z,29.93
2023-02-16T03:15:57.877Z,29.43
2023-02-16T03:18:45.098Z,31.47
2023-02-16T03:21:31.472Z,26.93
2023-02-16T03:24:19.551Z,31.57
2023-02-16T03:27:08.972Z,31.13
2023-02-16T03:29:38.165Z,29.67
2023-02-16T03:32:07.776Z,29.57
2023-02-16T03:34:37.703Z,29.93
2023-02-16T03:37:06.858Z,35.33
2023-02-16T03:39:55.719Z,29.00
2023-02-16T03:42:24.050Z,29.53
2023-02-16T03:44:53.501Z,31.30
2023-02-16T03:47:22.900Z,30.63
2023-02-16T03:49:50.804Z,29.07
2023-02-16T03:52:18.728Z,27.03
2023-02-16T03:54:46.624Z,26.77
2023-02-16T03:57:14.548Z,32.13
2023-02-16T03:59:42.475Z,27.83
2023-02-16T04:02:10.411Z,28.90
2023-02-16T04:04:39.900Z,32.63
2023-02-16T04:07:07.838Z,27.47
2023-02-16T04:09:35.734Z,31.17
2023-02-16T04:12:20.827Z,29.53
2023-02-16T04:14:49.172Z,28.07
2023-02-16T04:17:17.070Z,28.17
2023-02-16T04:19:46.333Z,30.67
2023-02-16T04:22:14.267Z,31.43
2023-02-16T04:24:42.197Z,32.80
2023-02-16T04:27:11.348Z,27.37
2023-02-16T04:29:39.265Z,29.37
2023-02-16T04:32:07.359Z,28.90
2023-02-16T04:34:35.360Z,28.13
2023-02-16T04:37:05.791Z,29.00
2023-02-16T04:39:33.827Z,32.47
2023-02-16T04:42:01.760Z,25.43
2023-02-16T04:44:29.759Z,30.70
2023-02-16T04:46:57.711Z,29.40
2023-02-16T04:49:25.671Z,28.03
2023-02-16T04:51:53.694Z,32.40
2023-02-16T04:54:23.042Z,27.77
2023-02-16T04:56:50.957Z,24.97
2023-02-16T04:59:18.898Z,28.77
2023-02-16T05:01:46.831Z,31.90
2023-02-16T05:04:14.796Z,27.33
2023-02-16T05:06:42.771Z,28.93
2023-02-16T05:09:11.002Z,26.30
2023-02-16T05:11:57.980Z,29.27
2023-02-16T05:14:45.000Z,28.40
2023-02-16T05:17:14.889Z,78.63
2023-02-16T05:19:43.114Z,133.47
2023-02-16T05:22:11.532Z,67.43
2023-02-16T05:24:39.625Z,108.97
2023-02-16T05:27:10.691Z,38.03
2023-02-16T05:29:38.611Z,34.90
2023-02-16T05:32:06.831Z,33.10
2023-02-16T05:34:34.841Z,35.53
2023-02-16T05:37:02.757Z,30.03
2023-02-16T05:39:30.728Z,31.63
2023-02-16T05:41:58.658Z,34.80
2023-02-16T05:44:27.986Z,32.83
2023-02-16T05:46:56.774Z,23.83
2023-02-16T05:49:24.660Z,29.63
2023-02-16T05:51:52.652Z,29.53
2023-02-16T05:54:20.573Z,34.20
2023-02-16T05:56:50.582Z,31.97
2023-02-16T05:59:19.089Z,34.33
2023-02-16T06:01:51.610Z,34.03
2023-02-16T06:04:21.083Z,32.43
2023-02-16T06:06:49.336Z,29.20
2023-02-16T06:09:17.517Z,36.37
2023-02-16T06:11:45.551Z,38.00
2023-02-16T06:14:15.828Z,32.50
2023-02-16T06:16:45.397Z,32.30
2023-02-16T06:19:15.388Z,29.67
2023-02-16T06:21:43.438Z,34.00
2023-02-16T06:24:13.226Z,31.10
2023-02-16T06:26:41.511Z,35.53
2023-02-16T06:29:09.978Z,32.00
2023-02-16T06:31:38.046Z,29.50
2023-02-16T06:34:06.736Z,31.33
2023-02-16T06:36:36.293Z,38.83
2023-02-16T06:39:04.623Z,34.80
2023-02-16T06:41:35.547Z,40.80
2023-02-16T06:44:05.523Z,46.07
2023-02-16T06:46:33.925Z,31.57
2023-02-16T06:49:02.218Z,32.13
2023-02-16T06:51:30.149Z,38.00
2023-02-16T06:53:59.488Z,32.07
2023-02-16T06:56:27.984Z,40.60
2023-02-16T06:58:55.969Z,34.40
2023-02-16T07:01:25.991Z,35.27
2023-02-16T07:03:55.362Z,36.37
2023-02-16T07:06:24.275Z,42.13
2023-02-16T07:08:52.615Z,48.07
2023-02-16T07:11:22.249Z,38.93
2023-02-16T07:13:50.175Z,31.83
2023-02-16T07:16:18.315Z,35.57
2023-02-16T07:18:46.624Z,36.07
2023-02-16T07:21:15.100Z,35.63
2023-02-16T07:23:43.350Z,35.13
2023-02-16T07:26:11.373Z,34.30
2023-02-16T07:28:40.748Z,38.77
2023-02-16T07:31:10.029Z,42.73
2023-02-16T07:33:38.082Z,36.70
2023-02-16T07:36:07.108Z,47.77
2023-02-16T07:38:35.034Z,33.17
2023-02-16T07:41:04.791Z,41.23
2023-02-16T07:43:34.696Z,36.70
2023-02-16T07:46:04.230Z,38.23
2023-02-16T07:48:32.843Z,37.10
2023-02-16T07:51:00.851Z,40.87
2023-02-16T07:53:28.969Z,36.60
2023-02-16T07:55:57.127Z,45.43
2023-02-16T07:58:31.289Z,34.77
2023-02-16T08:01:09.513Z,34.10
2023-02-16T08:03:37.450Z,35.73
2023-02-16T08:06:06.241Z,38.33
2023-02-16T08:08:34.396Z,36.70
2023-02-16T08:11:09.547Z,37.97
2023-02-16T08:13:37.503Z,35.87
2023-02-16T08:16:10.546Z,37.73
2023-02-16T08:18:38.530Z,37.63
2023-02-16T08:21:14.409Z,48.10
2023-02-16T08:23:43.611Z,37.17
2023-02-16T08:26:12.321Z,36.93
2023-02-16T08:28:46.150Z,32.80
2023-02-16T08:31:16.973Z,35.33
2023-02-16T08:33:45.144Z,33.63
2023-02-16T08:36:19.006Z,38.93
2023-02-16T08:38:50.156Z,39.37
2023-02-16T08:41:18.658Z,34.07
2023-02-16T08:43:46.912Z,39.27
2023-02-16T08:46:16.753Z,39.97
2023-02-16T08:48:45.312Z,37.83
2023-02-16T08:51:15.544Z,39.37
2023-02-16T08:53:43.478Z,40.63
2023-02-16T08:56:12.238Z,35.80
2023-02-16T08:58:40.250Z,32.90
2023-02-16T09:01:08.915Z,37.03
2023-02-16T09:03:38.530Z,36.40
2023-02-16T09:06:07.393Z,33.97
2023-02-16T09:08:37.568Z,34.70
2023-02-16T09:11:06.828Z,42.30
2023-02-16T09:13:35.715Z,37.67
2023-02-16T09:16:05.294Z,37.63
2023-02-16T09:18:33.727Z,41.33
2023-02-16T09:21:06.946Z,41.00
2023-02-16T09:23:35.786Z,36.70
2023-02-16T09:26:07.086Z,38.00
2023-02-16T09:28:35.908Z,36.67
2023-02-16T09:31:10.573Z,37.27
2023-02-16T09:33:38.660Z,35.60
2023-02-16T09:36:09.204Z,41.63
2023-02-16T09:38:37.276Z,34.10
2023-02-16T09:41:10.601Z,42.30
2023-02-16T09:43:46.636Z,37.83
2023-02-16T09:46:17.112Z,42.17
2023-02-16T09:48:47.284Z,34.20
2023-02-16T09:51:20.914Z,34.37
2023-02-16T09:53:55.779Z,38.80
2023-02-16T09:56:28.584Z,37.60
2023-02-16T09:58:59.375Z,40.03
2023-02-16T10:01:32.553Z,37.30
2023-02-16T10:04:11.984Z,35.07
2023-02-16T10:06:58.383Z,34.70
2023-02-16T10:09:28.075Z,37.60
2023-02-16T10:11:59.169Z,35.93
2023-02-16T10:14:33.599Z,36.10
2023-02-16T10:17:08.347Z,34.67
2023-02-16T10:19:40.746Z,37.53
2023-02-16T10:22:17.360Z,38.70
2023-02-16T10:24:49.897Z,35.50
2023-02-16T10:27:17.867Z,38.13
2023-02-16T10:29:45.806Z,38.40
2023-02-16T10:32:17.791Z,40.70
2023-02-16T10:34:50.139Z,35.83
2023-02-16T10:37:28.755Z,32.50
2023-02-16T10:40:05.988Z,43.93
2023-02-16T10:42:41.904Z,47.53
2023-02-16T10:45:21.060Z,40.60
2023-02-16T10:47:49.639Z,34.37
2023-02-16T10:50:23.279Z,38.53
2023-02-16T10:52:54.166Z,35.77
2023-02-16T10:55:22.180Z,37.23
2023-02-16T10:57:56.813Z,37.73
2023-02-16T11:00:30.734Z,41.13
2023-02-16T11:02:58.704Z,37.67
2023-02-16T11:05:32.785Z,34.40
2023-02-16T11:08:02.892Z,36.67
2023-02-16T11:10:40.184Z,32.33
2023-02-16T11:13:09.107Z,40.13
2023-02-16T11:15:38.603Z,37.80
2023-02-16T11:18:10.115Z,35.20
2023-02-16T11:20:56.113Z,39.67
2023-02-16T11:23:26.853Z,35.53
2023-02-16T11:26:00.549Z,36.90
2023-02-16T11:28:32.691Z,33.70
2023-02-16T11:31:03.991Z,33.03
2023-02-16T11:33:32.727Z,39.27
2023-02-16T11:36:02.437Z,39.40
2023-02-16T11:38:33.611Z,42.27
2023-02-16T11:41:03.746Z,39.23
2023-02-16T11:43:34.728Z,35.53
2023-02-16T11:46:05.379Z,41.27
2023-02-16T11:48:34.849Z,39.37
2023-02-16T11:51:05.710Z,48.63
2023-02-16T11:53:36.548Z,45.27
2023-02-16T11:56:15.312Z,43.97
2023-02-16T11:58:43.236Z,41.63
2023-02-16T12:01:20.320Z,45.00
2023-02-16T12:04:12.897Z,43.93
2023-02-16T12:06:53.173Z,45.93
2023-02-16T12:09:31.102Z,48.60
2023-02-16T12:12:04.708Z,40.87
2023-02-16T12:14:48.499Z,44.00
2023-02-16T12:17:27.874Z,47.33
2023-02-16T12:20:03.456Z,43.57
2023-02-16T12:22:41.537Z,45.13
2023-02-16T12:25:25.601Z,45.13
2023-02-16T12:27:56.971Z,49.63
2023-02-16T12:30:34.318Z,45.93
2023-02-16T12:33:11.168Z,44.70
2023-02-16T12:35:51.791Z,43.67
2023-02-16T12:38:30.246Z,47.40
2023-02-16T12:41:07.580Z,52.17
2023-02-16T12:43:39.174Z,43.17
2023-02-16T12:46:14.668Z,50.23
2023-02-16T12:48:48.160Z,50.87
2023-02-16T12:51:20.351Z,50.67
2023-02-16T12:53:53.701Z,46.17
2023-02-16T12:56:26.239Z,54.07
2023-02-16T12:59:02.484Z,49.63
2023-02-16T13:01:32.352Z,50.30
2023-02-16T13:04:04.982Z,49.70
2023-02-16T13:06:37.502Z,50.27
2023-02-16T13:09:12.681Z,47.93
2023-02-16T13:11:47.017Z,53.87
2023-02-16T13:14:19.016Z,52.07
2023-02-16T13:16:49.637Z,54.33
2023-02-16T13:19:17.656Z,52.63
2023-02-16T13:22:21.605Z,52.83
2023-02-16T13:24:59.209Z,54.83
2023-02-16T13:27:37.063Z,53.90
2023-02-16T13:30:24.638Z,48.73
2023-02-16T13:33:11.133Z,52.53
2023-02-16T13:36:12.280Z,51.23
2023-02-16T13:39:23.865Z,48.73
2023-02-16T13:42:25.536Z,55.30
2023-02-16T13:44:56.173Z,49.80
2023-02-16T13:47:27.933Z,52.23
2023-02-16T13:49:58.552Z,52.37
2023-02-16T13:52:32.255Z,50.40
2023-02-16T13:55:01.460Z,47.03
2023-02-16T13:58:04.581Z,47.73
2023-02-16T14:00:37.097Z,46.40
2023-02-16T14:03:12.071Z,48.83
2023-02-16T14:05:42.687Z,48.83
2023-02-16T14:08:24.745Z,57.37
2023-02-16T14:11:11.409Z,47.83
2023-02-16T14:13:50.912Z,44.33
2023-02-16T14:16:34.273Z,47.63
2023-02-16T14:19:05.997Z,54.00
2023-02-16T14:21:38.437Z,48.47
2023-02-16T14:24:08.636Z,43.23
2023-02-16T14:26:55.251Z,45.70
2023-02-16T14:29:25.541Z,45.33
2023-02-16T14:32:00.459Z,54.33
2023-02-16T14:34:30.400Z,45.07
2023-02-16T14:37:27.956Z,49.23
2023-02-16T14:40:07.735Z,44.77
2023-02-16T14:42:37.256Z,44.27
2023-02-16T14:45:31.615Z,43.73
2023-02-16T14:48:08.509Z,47.80
2023-02-16T14:50:47.223Z,37.63
2023-02-16T14:53:45.602Z,108.37
2023-02-16T14:56:40.416Z,50.60
2023-02-16T14:59:14.570Z,68.50
2023-02-16T15:01:43.605Z,55.73
2023-02-16T15:04:13.287Z,57.63
2023-02-16T15:06:43.885Z,48.40
2023-02-16T15:09:17.228Z,47.13
2023-02-16T15:12:08.035Z,44.13
2023-02-16T15:14:39.684Z,43.03
2023-02-16T15:17:08.135Z,46.67
2023-02-16T15:19:39.691Z,44.30
2023-02-16T15:22:20.713Z,45.47
2023-02-16T15:24:59.886Z,44.17
2023-02-16T15:27:29.803Z,45.90
2023-02-16T15:30:10.382Z,47.10
2023-02-16T15:32:38.412Z,45.63
2023-02-16T15:35:23.789Z,42.33
2023-02-16T15:38:01.191Z,45.97
2023-02-16T15:40:32.952Z,48.43
2023-02-16T15:43:09.840Z,49.13
2023-02-16T15:45:39.531Z,48.33
2023-02-16T15:48:23.503Z,46.93
2023-02-16T15:50:53.575Z,43.73
2023-02-16T15:53:28.893Z,45.87
2023-02-16T15:55:56.947Z,40.53
2023-02-16T15:58:24.949Z,53.93
2023-02-16T16:00:54.790Z,47.07
2023-02-16T16:03:23.600Z,45.90
2023-02-16T16:05:59.819Z,49.83
2023-02-16T16:08:29.196Z,43.07
2023-02-16T16:10:57.763Z,47.47
2023-02-16T16:13:26.956Z,45.90
2023-02-16T16:15:59.836Z,39.17
2023-02-16T16:18:45.796Z,45.10
2023-02-16T16:21:19.614Z,44.13
2023-02-16T16:24:02.435Z,43.90
2023-02-16T16:26:33.502Z,43.37
2023-02-16T16:29:01.970Z,54.13
2023-02-16T16:31:36.905Z,44.57
2023-02-16T16:34:07.113Z,42.03
2023-02-16T16:36:37.888Z,43.47
2023-02-16T16:39:27.976Z,43.33
2023-02-16T16:42:18.370Z,46.03
2023-02-16T16:44:54.999Z,45.57
2023-02-16T16:47:26.278Z,48.47
2023-02-16T16:49:56.361Z,53.50
2023-02-16T16:52:45.304Z,44.17
2023-02-16T16:55:32.601Z,46.97
2023-02-16T16:58:03.407Z,47.13
2023-02-16T17:00:34.636Z,49.37
2023-02-16T17:03:03.171Z,43.90
2023-02-16T17:05:31.215Z,44.10
2023-02-16T17:08:00.501Z,43.30
2023-02-16T17:10:29.546Z,43.90
2023-02-16T17:12:59.850Z,43.57
2023-02-16T17:15:35.276Z,39.90
2023-02-16T17:18:03.394Z,42.10
2023-02-16T17:20:31.412Z,40.40
2023-02-16T17:23:04.757Z,41.20
2023-02-16T17:25:36.220Z,42.17
2023-02-16T17:28:04.939Z,39.43
2023-02-16T17:30:33.504Z,42.13
2023-02-16T17:33:01.469Z,41.77
2023-02-16T17:35:29.547Z,38.63
2023-02-16T17:37:57.504Z,37.97
2023-02-16T17:40:27.544Z,38.03
2023-02-16T17:42:55.850Z,39.40
2023-02-16T17:45:26.005Z,40.33
2023-02-16T17:47:54.132Z,39.30
2023-02-16T17:50:22.410Z,33.60
2023-02-16T17:52:50.364Z,35.73
2023-02-16T17:55:18.501Z,45.10
2023-02-16T17:57:47.781Z,36.57
2023-02-16T18:00:19.131Z,40.13
2023-02-16T18:02:47.671Z,36.03
2023-02-16T18:05:15.648Z,36.20
2023-02-16T18:07:43.557Z,33.70
2023-02-16T18:10:17.957Z,33.33
2023-02-16T18:12:47.260Z,39.23
2023-02-16T18:15:15.286Z,34.27
2023-02-16T18:17:43.188Z,33.33
2023-02-16T18:20:15.860Z,36.63
2023-02-16T18:22:43.777Z,35.03
2023-02-16T18:25:11.828Z,31.13
2023-02-16T18:27:39.725Z,40.40
2023-02-16T18:30:10.296Z,40.30
2023-02-16T18:32:38.399Z,40.87
2023-02-16T18:35:06.943Z,43.03
2023-02-16T18:37:34.873Z,41.47
2023-02-16T18:40:03.533Z,44.80
2023-02-16T18:42:31.434Z,36.73
2023-02-16T18:44:59.403Z,40.67
2023-02-16T18:47:28.950Z,49.07
2023-02-16T18:49:57.216Z,53.37
2023-02-16T18:52:25.239Z,43.63
2023-02-16T18:54:53.174Z,48.13
2023-02-16T18:57:22.667Z,57.73
2023-02-16T18:59:50.691Z,46.73
2023-02-16T19:02:19.079Z,55.13
2023-02-16T19:04:48.597Z,53.90
2023-02-16T19:07:16.519Z,56.37
2023-02-16T19:09:44.430Z,45.63
2023-02-16T19:12:12.345Z,54.90
2023-02-16T19:14:40.282Z,51.67
2023-02-16T19:17:08.165Z,52.63
2023-02-16T19:19:36.843Z,59.13
2023-02-16T19:22:06.154Z,46.13
2023-02-16T19:24:34.967Z,52.20
2023-02-16T19:27:02.991Z,49.70
2023-02-16T19:29:30.965Z,48.60
2023-02-16T19:31:58.958Z,46.73
2023-02-16T19:34:27.044Z,55.53
2023-02-16T19:36:55.056Z,48.10
2023-02-16T19:39:24.364Z,49.23
2023-02-16T19:41:52.254Z,46.00
2023-02-16T19:44:23.199Z,53.30
2023-02-16T19:46:51.115Z,51.93
2023-02-16T19:49:19.297Z,46.53
2023-02-16T19:51:47.750Z,47.30
2023-02-16T19:54:15.882Z,44.20
2023-02-16T19:56:45.192Z,44.47
2023-02-16T19:59:13.112Z,45.70
2023-02-16T20:01:41.182Z,51.53
2023-02-16T20:04:10.170Z,52.50
2023-02-16T20:06:41.733Z,44.63
2023-02-16T20:09:12.148Z,48.17
2023-02-16T20:11:40.682Z,47.97
2023-02-16T20:14:09.980Z,52.07
2023-02-16T20:16:37.969Z,45.27
2023-02-16T20:19:05.926Z,50.97
2023-02-16T20:21:34.532Z,52.60
2023-02-16T20:24:04.725Z,48.07
2023-02-16T20:26:34.613Z,47.40
2023-02-16T20:29:03.576Z,50.97
2023-02-16T20:31:36.381Z,48.47
2023-02-16T20:34:05.256Z,49.53
2023-02-16T20:36:33.407Z,49.60
2023-02-16T20:39:01.338Z,46.87
2023-02-16T20:41:29.311Z,47.20
2023-02-16T20:43:57.296Z,47.57
2023-02-16T20:46:26.211Z,51.77
2023-02-16T20:48:55.609Z,43.40
2023-02-16T20:51:23.936Z,48.50
2023-02-16T20:53:51.910Z,44.17
2023-02-16T20:56:22.813Z,48.37
2023-02-16T20:58:52.512Z,42.03
2023-02-16T21:01:23.114Z,43.33
2023-02-16T21:03:51.837Z,42.43
2023-02-16T21:06:21.551Z,38.93
2023-02-16T21:08:49.746Z,42.47
2023-02-16T21:11:18.160Z,41.60
2023-02-16T21:13:46.335Z,38.53
2023-02-16T21:16:15.106Z,39.87
2023-02-16T21:18:45.719Z,39.00
2023-02-16T21:21:15.767Z,36.97
2023-02-16T21:23:46.785Z,34.53
2023-02-16T21:26:14.921Z,35.37
2023-02-16T21:28:42.878Z,36.40
2023-02-16T21:31:14.403Z,36.90
2023-02-16T21:33:42.607Z,35.63
2023-02-16T21:36:12.513Z,36.90
2023-02-16T21:38:41.288Z,39.97
2023-02-16T21:41:25.749Z,39.27
2023-02-16T21:43:55.347Z,38.77
2023-02-16T21:46:23.358Z,40.17
2023-02-16T21:48:50.442Z,35.93
2023-02-16T21:51:19.937Z,37.97
2023-02-16T21:53:48.209Z,39.00
2023-02-16T21:56:24.552Z,36.90
2023-02-16T21:58:52.476Z,39.57
2023-02-16T22:01:25.316Z,39.10
2023-02-16T22:03:56.319Z,39.50
2023-02-16T22:06:25.433Z,38.17
2023-02-16T22:08:53.573Z,36.33
2023-02-16T22:11:22.885Z,39.53
2023-02-16T22:13:54.546Z,39.13
2023-02-16T22:16:22.550Z,37.90
2023-02-16T22:18:50.756Z,38.57
2023-02-16T22:21:19.912Z,39.13
2023-02-16T22:23:47.859Z,37.37
2023-02-16T22:26:24.966Z,38.63
2023-02-16T22:28:53.384Z,35.97
2023-02-16T22:31:22.979Z,37.30
2023-02-16T22:33:56.093Z,34.43
2023-02-16T22:36:24.019Z,40.27
2023-02-16T22:38:53.994Z,35.10
2023-02-16T22:41:24.392Z,35.20
2023-02-16T22:43:53.495Z,37.63
2023-02-16T22:46:21.486Z,37.53
2023-02-16T22:48:49.472Z,43.13
2023-02-16T22:51:18.071Z,38.70
2023-02-16T22:53:46.365Z,36.03
2023-02-16T22:56:16.106Z,38.57
2023-02-16T22:58:45.425Z,39.90
2023-02-16T23:01:15.071Z,38.80
2023-02-16T23:03:43.519Z,38.77
2023-02-16T23:06:15.601Z,37.67
2023-02-16T23:08:44.199Z,38.03
2023-02-16T23:11:12.871Z,37.33
2023-02-16T23:13:41.011Z,38.87
2023-02-16T23:16:12.893Z,39.87
2023-02-16T23:18:41.019Z,34.83
2023-02-16T23:21:10.005Z,33.47
2023-02-16T23:23:38.167Z,36.73
2023-02-16T23:26:07.740Z,38.90
2023-02-16T23:28:36.298Z,37.90
2023-02-16T23:31:04.529Z,38.47
2023-02-16T23:33:34.206Z,40.60
2023-02-16T23:36:02.186Z,40.53
2023-02-16T23:38:30.326Z,45.57
2023-02-16T23:40:59.250Z,47.63
2023-02-16T23:43:27.434Z,38.30
2023-02-16T23:45:55.664Z,44.87
2023-02-16T23:48:24.385Z,41.40
2023-02-16T23:50:54.104Z,38.93
2023-02-16T23:53:23.172Z,48.43
2023-02-16T23:55:58.359Z,39.07
2023-02-16T23:58:27.576Z,35.53
